Time;durP1;ratioP1;P1;durP2;ratioP2;P2;SDS_P1;SDS_P2;PMS_P1;PMS_P2;Temp;Humidity;BMP_temperature;BMP_pressure;BME280_temperature;BME280_humidity;BME280_pressure;Samples;Min_cycle;Max_cycle;Signal;HPM_P1;HPM_P2
2023/05/15 00:01:34;;;;;;;11.40;10.40;;;;;;;;;;4942927;29;20767;-74
2023/05/15 00:04:01;;;;;;;18.83;12.77;;;;;;;;;;4941572;29;20432;-73
2023/05/15 00:06:27;;;;;;;19.67;14.90;;;;;;;;;;4942293;29;20409;-73
2023/05/15 00:08:53;;;;;;;22.37;15.67;;;;;;;;;;4943027;29;20432;-74
2023/05/15 00:11:20;;;;;;;22.40;16.57;;;;;;;;;;4942503;29;20402;-74
2023/05/15 00:13:46;;;;;;;18.80;16.43;;;;;;;;;;4942681;29;20421;-74
2023/05/15 00:16:12;;;;;;;18.40;14.73;;;;;;;;;;4943521;29;20416;-75
2023/05/15 00:18:38;;;;;;;20.00;16.10;;;;;;;;;;4943043;29;20559;-74
2023/05/15 00:21:04;;;;;;;21.23;17.37;;;;;;;;;;4942075;29;20905;-74
2023/05/15 00:23:30;;;;;;;19.50;17.13;;;;;;;;;;4942783;29;20402;-74
2023/05/15 00:25:56;;;;;;;24.53;19.43;;;;;;;;;;4943114;29;20417;-73
2023/05/15 00:28:22;;;;;;;24.03;17.33;;;;;;;;;;4942652;29;20384;-74
2023/05/15 00:30:48;;;;;;;22.37;19.87;;;;;;;;;;4942714;29;20793;-74
2023/05/15 00:33:14;;;;;;;28.60;19.00;;;;;;;;;;4942399;29;20485;-74
2023/05/15 00:35:40;;;;;;;29.70;21.40;;;;;;;;;;4942734;29;20408;-74
2023/05/15 00:38:06;;;;;;;29.67;22.03;;;;;;;;;;4942234;29;20464;-73
2023/05/15 00:40:33;;;;;;;24.90;19.50;;;;;;;;;;4942764;29;20409;-74
2023/05/15 00:43:00;;;;;;;27.67;19.40;;;;;;;;;;4942886;29;20405;-73
2023/05/15 00:45:26;;;;;;;27.00;21.60;;;;;;;;;;4942243;29;20409;-73
2023/05/15 00:47:53;;;;;;;26.87;22.00;;;;;;;;;;4942523;29;20788;-73
2023/05/15 00:50:19;;;;;;;27.10;21.33;;;;;;;;;;4942013;29;20476;-74
2023/05/15 00:52:45;;;;;;;28.73;22.90;;;;;;;;;;4942629;29;20410;-74
2023/05/15 00:55:11;;;;;;;26.30;23.50;;;;;;;;;;4942315;29;20448;-74
2023/05/15 00:57:38;;;;;;;24.97;20.47;;;;;;;;;;4942161;29;20452;-73
2023/05/15 01:00:09;;;;;;;29.13;22.03;;;;;;;;;;4942293;29;20417;-74
2023/05/15 01:02:36;;;;;;;30.87;22.50;;;;;;;;;;4941874;29;20458;-74
2023/05/15 01:05:02;;;;;;;39.90;25.17;;;;;;;;;;4942279;29;20413;-74
2023/05/15 01:07:32;;;;;;;33.30;25.30;;;;;;;;;;4941596;29;20405;-74
2023/05/15 01:09:58;;;;;;;29.67;23.60;;;;;;;;;;4941917;29;20474;-73
2023/05/15 01:12:25;;;;;;;36.53;28.70;;;;;;;;;;4941910;29;20868;-74
2023/05/15 01:14:51;;;;;;;48.00;29.57;;;;;;;;;;4942107;29;20504;-73
2023/05/15 01:17:17;;;;;;;39.93;29.20;;;;;;;;;;4941581;29;20413;-74
2023/05/15 01:19:44;;;;;;;37.83;27.90;;;;;;;;;;4941427;29;20476;-73
2023/05/15 01:22:10;;;;;;;44.00;30.27;;;;;;;;;;4942049;29;20417;-73
2023/05/15 01:24:36;;;;;;;40.30;29.67;;;;;;;;;;4941959;29;20742;-73
2023/05/15 01:27:17;;;;;;;44.17;30.03;;;;;;;;;;4942157;29;20437;-73
2023/05/15 01:29:55;;;;;;;41.27;29.90;;;;;;;;;;4941852;29;20388;-74
2023/05/15 01:32:28;;;;;;;48.80;33.87;;;;;;;;;;4941747;29;20504;-74
2023/05/15 01:35:01;;;;;;;53.27;33.17;;;;;;;;;;4941731;29;20759;-74
2023/05/15 01:37:28;;;;;;;42.70;31.53;;;;;;;;;;4941314;29;20437;-74
2023/05/15 01:39:59;;;;;;;47.03;32.57;;;;;;;;;;4941945;29;20406;-74
2023/05/15 01:42:27;;;;;;;47.27;31.53;;;;;;;;;;4941439;29;20406;-74
2023/05/15 01:44:55;;;;;;;46.67;33.47;;;;;;;;;;4941678;29;20448;-73
2023/05/15 01:47:24;;;;;;;49.57;34.03;;;;;;;;;;4941561;29;20502;-74
2023/05/15 01:49:51;;;;;;;46.97;33.80;;;;;;;;;;4942063;29;20425;-74
2023/05/15 01:52:26;;;;;;;45.20;33.57;;;;;;;;;;4941470;29;20865;-77
2023/05/15 01:54:54;;;;;;;52.37;34.57;;;;;;;;;;4941446;29;20403;-73
2023/05/15 01:57:20;;;;;;;52.97;33.77;;;;;;;;;;4941238;29;20397;-74
2023/05/15 01:59:47;;;;;;;50.93;34.27;;;;;;;;;;4941791;29;20406;-74
2023/05/15 02:02:13;;;;;;;44.30;30.47;;;;;;;;;;4941210;29;20412;-74
2023/05/15 02:04:40;;;;;;;45.10;35.13;;;;;;;;;;4940282;29;20413;-74
2023/05/15 02:07:07;;;;;;;45.13;34.80;;;;;;;;;;4939841;29;20898;-74
2023/05/15 02:09:33;;;;;;;48.00;32.20;;;;;;;;;;4939435;29;20497;-74
2023/05/15 02:12:02;;;;;;;55.00;35.00;;;;;;;;;;4939232;29;20428;-74
2023/05/15 02:14:28;;;;;;;53.60;37.40;;;;;;;;;;4940841;29;20521;-74
2023/05/15 02:16:55;;;;;;;50.93;29.90;;;;;;;;;;4941442;29;20400;-73
2023/05/15 02:19:21;;;;;;;55.00;32.30;;;;;;;;;;4941293;29;20489;-74
2023/05/15 02:21:47;;;;;;;49.07;32.60;;;;;;;;;;4941744;29;20406;-74
2023/05/15 02:24:13;;;;;;;53.53;34.37;;;;;;;;;;4941255;29;20402;-74
2023/05/15 02:26:46;;;;;;;49.63;33.23;;;;;;;;;;4941371;29;21022;-74
2023/05/15 02:29:20;;;;;;;56.20;31.40;;;;;;;;;;4941287;29;20437;-74
2023/05/15 02:31:46;;;;;;;46.20;32.07;;;;;;;;;;4941391;29;20893;-74
2023/05/15 02:34:30;;;;;;;52.80;34.87;;;;;;;;;;4941214;29;20414;-74
2023/05/15 02:36:57;;;;;;;47.23;33.70;;;;;;;;;;4941391;29;20440;-73
2023/05/15 02:39:23;;;;;;;46.70;29.60;;;;;;;;;;4940900;29;20476;-73
2023/05/15 02:41:51;;;;;;;46.07;34.57;;;;;;;;;;4941333;29;20418;-74
2023/05/15 02:44:17;;;;;;;43.17;33.57;;;;;;;;;;4941364;29;20912;-74
2023/05/15 02:46:44;;;;;;;53.10;36.50;;;;;;;;;;4941015;29;20505;-74
2023/05/15 02:49:11;;;;;;;47.97;34.63;;;;;;;;;;4941086;29;20413;-74
2023/05/15 02:51:37;;;;;;;56.17;36.10;;;;;;;;;;4940896;29;20457;-74
2023/05/15 02:54:03;;;;;;;57.47;37.13;;;;;;;;;;4941153;29;20961;-74
2023/05/15 02:56:29;;;;;;;50.03;32.40;;;;;;;;;;4940965;29;20445;-74
2023/05/15 02:58:55;;;;;;;56.10;33.87;;;;;;;;;;4940633;29;20476;-74
2023/05/15 03:01:21;;;;;;;48.30;35.33;;;;;;;;;;4940693;29;20436;-76
2023/05/15 03:03:47;;;;;;;50.87;34.20;;;;;;;;;;4940784;29;20853;-74
2023/05/15 03:06:13;;;;;;;61.47;35.77;;;;;;;;;;4939605;29;20934;-74
2023/05/15 03:08:39;;;;;;;56.63;35.77;;;;;;;;;;4940532;29;20413;-74
2023/05/15 03:11:05;;;;;;;49.80;33.37;;;;;;;;;;4940948;29;20884;-74
2023/05/15 03:13:31;;;;;;;51.63;34.70;;;;;;;;;;4940601;29;20429;-74
2023/05/15 03:15:57;;;;;;;47.60;31.13;;;;;;;;;;4940863;29;20516;-74
2023/05/15 03:18:23;;;;;;;63.87;34.83;;;;;;;;;;4940158;29;20472;-74
2023/05/15 03:20:51;;;;;;;60.27;36.23;;;;;;;;;;4940856;29;20809;-74
2023/05/15 03:23:17;;;;;;;59.17;34.37;;;;;;;;;;4940795;29;20434;-74
2023/05/15 03:25:43;;;;;;;44.40;31.70;;;;;;;;;;4940349;29;20409;-74
2023/05/15 03:28:10;;;;;;;46.73;31.13;;;;;;;;;;4940373;29;20421;-73
2023/05/15 03:30:36;;;;;;;52.30;32.77;;;;;;;;;;4940396;29;20406;-74
2023/05/15 03:33:02;;;;;;;51.30;34.27;;;;;;;;;;4941201;29;20424;-74
2023/05/15 03:35:29;;;;;;;52.10;32.43;;;;;;;;;;4940452;29;20465;-74
2023/05/15 03:37:55;;;;;;;51.10;33.83;;;;;;;;;;4940489;29;20467;-73
2023/05/15 03:40:21;;;;;;;53.83;33.90;;;;;;;;;;4940591;29;20500;-74
2023/05/15 03:42:47;;;;;;;53.50;35.10;;;;;;;;;;4939976;29;20414;-73
2023/05/15 03:45:13;;;;;;;49.37;34.00;;;;;;;;;;4941060;29;20406;-74
2023/05/15 03:47:39;;;;;;;46.93;31.30;;;;;;;;;;4940352;29;20459;-73
2023/05/15 03:50:05;;;;;;;54.10;33.60;;;;;;;;;;4940867;29;20532;-74
2023/05/15 03:52:31;;;;;;;57.93;36.77;;;;;;;;;;4940468;29;20417;-74
2023/05/15 03:54:57;;;;;;;57.83;35.80;;;;;;;;;;4940753;29;20890;-74
2023/05/15 03:57:23;;;;;;;52.00;35.10;;;;;;;;;;4940477;29;20763;-73
2023/05/15 03:59:49;;;;;;;55.83;33.57;;;;;;;;;;4940499;29;20416;-74
2023/05/15 04:02:15;;;;;;;51.67;33.53;;;;;;;;;;4940885;29;20453;-73
2023/05/15 04:04:43;;;;;;;43.67;31.30;;;;;;;;;;4940418;29;20417;-73
2023/05/15 04:07:09;;;;;;;57.90;34.67;;;;;;;;;;4940626;29;20463;-74
2023/05/15 04:09:35;;;;;;;56.73;36.23;;;;;;;;;;4940590;29;20438;-74
2023/05/15 04:12:01;;;;;;;57.80;37.30;;;;;;;;;;4940478;29;20413;-74
2023/05/15 04:14:28;;;;;;;56.37;37.13;;;;;;;;;;4939958;29;20413;-75
2023/05/15 04:16:54;;;;;;;60.70;38.90;;;;;;;;;;4940863;29;20405;-74
2023/05/15 04:19:20;;;;;;;57.53;37.38;;;;;;;;;;4940380;29;20488;-74
2023/05/15 04:21:46;;;;;;;60.10;35.60;;;;;;;;;;4940648;29;20233;-73
2023/05/15 04:24:12;;;;;;;55.57;35.30;;;;;;;;;;4940328;29;20822;-74
2023/05/15 04:26:38;;;;;;;51.20;35.63;;;;;;;;;;4940158;29;20420;-74
2023/05/15 04:29:04;;;;;;;54.50;34.23;;;;;;;;;;4939971;29;20756;-74
2023/05/15 04:31:31;;;;;;;54.13;34.60;;;;;;;;;;4940171;29;20515;-74
2023/05/15 04:33:57;;;;;;;50.80;35.63;;;;;;;;;;4940172;29;20522;-74
2023/05/15 04:36:23;;;;;;;49.23;33.73;;;;;;;;;;4942869;29;20401;-74
2023/05/15 04:38:49;;;;;;;49.97;33.07;;;;;;;;;;4943972;29;20453;-74
2023/05/15 04:41:15;;;;;;;48.43;32.80;;;;;;;;;;4943416;29;20457;-74
2023/05/15 04:43:41;;;;;;;47.27;33.40;;;;;;;;;;4943784;29;20446;-74
2023/05/15 04:46:07;;;;;;;50.47;33.87;;;;;;;;;;4944217;29;20417;-74
2023/05/15 04:48:32;;;;;;;52.20;34.40;;;;;;;;;;4943452;29;20441;-73
2023/05/15 04:50:58;;;;;;;56.50;35.57;;;;;;;;;;4943492;29;20552;-73
2023/05/15 04:53:24;;;;;;;49.93;33.13;;;;;;;;;;4942860;29;20388;-75
2023/05/15 04:55:50;;;;;;;47.43;32.53;;;;;;;;;;4941601;29;20475;-76
2023/05/15 04:58:17;;;;;;;56.63;35.40;;;;;;;;;;4942003;29;20465;-76
2023/05/15 05:00:43;;;;;;;54.73;34.60;;;;;;;;;;4942501;29;20416;-76
2023/05/15 05:03:09;;;;;;;47.50;33.23;;;;;;;;;;4942311;29;20417;-76
2023/05/15 05:05:35;;;;;;;48.40;32.60;;;;;;;;;;4941829;29;20414;-76
2023/05/15 05:08:01;;;;;;;53.00;32.00;;;;;;;;;;4941692;29;20981;-75
2023/05/15 05:10:27;;;;;;;52.63;31.10;;;;;;;;;;4942070;29;20819;-76
2023/05/15 05:12:53;;;;;;;48.00;33.10;;;;;;;;;;4941528;29;20417;-76
2023/05/15 05:15:19;;;;;;;46.60;31.53;;;;;;;;;;4941871;29;20500;-76
2023/05/15 05:17:45;;;;;;;43.40;28.70;;;;;;;;;;4941670;29;20469;-77
2023/05/15 05:20:12;;;;;;;43.10;30.50;;;;;;;;;;4941396;29;20427;-76
2023/05/15 05:22:38;;;;;;;46.73;32.23;;;;;;;;;;4941097;29;20408;-77
2023/05/15 05:25:05;;;;;;;43.90;30.63;;;;;;;;;;4941662;29;20475;-76
2023/05/15 05:27:31;;;;;;;46.57;30.70;;;;;;;;;;4941414;29;20417;-77
2023/05/15 05:29:57;;;;;;;41.33;30.30;;;;;;;;;;4941373;29;20409;-76
2023/05/15 05:32:23;;;;;;;42.80;31.40;;;;;;;;;;4941125;29;20402;-76
2023/05/15 05:34:49;;;;;;;48.13;29.77;;;;;;;;;;4941634;29;20752;-77
2023/05/15 05:37:15;;;;;;;44.67;29.85;;;;;;;;;;4941479;29;20417;-77
2023/05/15 05:39:41;;;;;;;34.70;27.03;;;;;;;;;;4941108;29;20190;-77
2023/05/15 05:42:07;;;;;;;38.70;30.30;;;;;;;;;;4941734;29;20468;-77
2023/05/15 05:44:33;;;;;;;45.57;30.77;;;;;;;;;;4941139;29;20398;-77
2023/05/15 05:46:59;;;;;;;39.33;27.37;;;;;;;;;;4940432;29;20496;-76
2023/05/15 05:49:25;;;;;;;38.07;28.10;;;;;;;;;;4941491;29;20422;-76
2023/05/15 05:51:51;;;;;;;41.13;27.27;;;;;;;;;;4941067;29;20472;-76
2023/05/15 05:54:17;;;;;;;43.17;31.00;;;;;;;;;;4941463;29;20437;-77
2023/05/15 05:56:43;;;;;;;45.63;31.43;;;;;;;;;;4940881;29;20882;-76
2023/05/15 05:59:09;;;;;;;50.07;32.20;;;;;;;;;;4941474;29;20476;-76
2023/05/15 06:01:36;;;;;;;44.57;31.67;;;;;;;;;;4941134;29;20436;-77
2023/05/15 06:04:02;;;;;;;44.33;32.30;;;;;;;;;;4941302;29;20413;-77
2023/05/15 06:06:28;;;;;;;49.23;35.37;;;;;;;;;;4941342;29;20410;-76
2023/05/15 06:08:53;;;;;;;55.17;29.80;;;;;;;;;;4940923;29;20473;-76
2023/05/15 06:11:20;;;;;;;49.30;35.00;;;;;;;;;;4941108;29;20882;-77
2023/05/15 06:13:46;;;;;;;56.10;35.17;;;;;;;;;;4941309;29;20409;-76
2023/05/15 06:16:12;;;;;;;49.60;29.80;;;;;;;;;;4939937;29;20756;-75
2023/05/15 06:18:38;;;;;;;51.50;36.33;;;;;;;;;;4941548;29;20524;-75
2023/05/15 06:21:04;;;;;;;50.57;35.30;;;;;;;;;;4941196;29;20429;-75
2023/05/15 06:23:30;;;;;;;51.77;38.10;;;;;;;;;;4941052;29;20409;-75
2023/05/15 06:25:56;;;;;;;53.07;38.10;;;;;;;;;;4941028;29;20472;-75
2023/05/15 06:28:22;;;;;;;51.70;36.60;;;;;;;;;;4941291;29;20813;-75
2023/05/15 06:30:48;;;;;;;59.63;36.37;;;;;;;;;;4941244;29;20429;-75
2023/05/15 06:33:14;;;;;;;50.97;35.20;;;;;;;;;;4941085;29;20381;-75
2023/05/15 06:35:40;;;;;;;57.87;37.57;;;;;;;;;;4940842;29;20750;-75
2023/05/15 06:38:06;;;;;;;55.73;36.70;;;;;;;;;;4941016;29;20520;-76
2023/05/15 06:40:32;;;;;;;51.60;37.20;;;;;;;;;;4941517;29;20835;-75
2023/05/15 06:42:58;;;;;;;48.13;34.83;;;;;;;;;;4940878;29;20413;-75
2023/05/15 06:45:24;;;;;;;46.80;34.10;;;;;;;;;;4941067;29;20774;-75
2023/05/15 06:47:50;;;;;;;47.90;35.57;;;;;;;;;;4940657;29;20504;-75
2023/05/15 06:50:16;;;;;;;55.43;38.77;;;;;;;;;;4940627;29;20980;-74
2023/05/15 06:52:42;;;;;;;51.53;37.80;;;;;;;;;;4940503;29;20878;-75
2023/05/15 06:55:08;;;;;;;53.43;35.43;;;;;;;;;;4940457;29;20413;-75
2023/05/15 06:57:34;;;;;;;49.60;36.13;;;;;;;;;;4939988;29;20894;-75
2023/05/15 07:00:00;;;;;;;62.30;38.27;;;;;;;;;;4940360;29;20424;-74
2023/05/15 07:02:26;;;;;;;55.33;38.07;;;;;;;;;;4940359;29;20418;-75
2023/05/15 07:04:52;;;;;;;53.00;37.40;;;;;;;;;;4940018;29;20417;-76
2023/05/15 07:07:18;;;;;;;58.93;42.30;;;;;;;;;;4940213;29;20818;-75
2023/05/15 07:09:47;;;;;;;56.37;36.17;;;;;;;;;;4940261;29;20452;-76
2023/05/15 07:12:13;;;;;;;54.70;40.00;;;;;;;;;;4940884;29;20429;-75
2023/05/15 07:14:39;;;;;;;56.53;39.87;;;;;;;;;;4939798;29;20418;-75
2023/05/15 07:17:05;;;;;;;50.43;33.30;;;;;;;;;;4940602;29;20421;-75
2023/05/15 07:19:31;;;;;;;67.53;41.10;;;;;;;;;;4940484;29;20489;-75
2023/05/15 07:21:57;;;;;;;56.20;38.27;;;;;;;;;;4939248;29;20429;-76
2023/05/15 07:24:23;;;;;;;54.20;35.27;;;;;;;;;;4940519;29;20517;-76
2023/05/15 07:26:49;;;;;;;57.27;38.70;;;;;;;;;;4940383;29;20410;-75
2023/05/15 07:29:15;;;;;;;61.70;41.30;;;;;;;;;;4940508;29;20440;-75
2023/05/15 07:31:43;;;;;;;53.40;34.73;;;;;;;;;;4939899;29;20417;-76
2023/05/15 07:34:09;;;;;;;64.37;39.90;;;;;;;;;;4939948;29;20417;-75
2023/05/15 07:36:35;;;;;;;59.80;39.20;;;;;;;;;;4940280;29;20413;-75
2023/05/15 07:39:01;;;;;;;53.23;38.50;;;;;;;;;;4938608;29;20842;-75
2023/05/15 07:41:29;;;;;;;55.10;35.87;;;;;;;;;;4940373;29;20418;-76
2023/05/15 07:43:55;;;;;;;59.83;37.97;;;;;;;;;;4939930;29;20936;-75
2023/05/15 07:46:21;;;;;;;54.57;38.63;;;;;;;;;;4939321;29;20392;-75
2023/05/15 07:48:47;;;;;;;52.10;35.60;;;;;;;;;;4939658;29;20413;-76
2023/05/15 07:51:13;;;;;;;55.50;34.67;;;;;;;;;;4940504;29;20469;-75
2023/05/15 07:53:39;;;;;;;46.00;35.20;;;;;;;;;;4940351;29;20416;-77
2023/05/15 07:56:05;;;;;;;49.87;35.77;;;;;;;;;;4940649;29;20430;-76
2023/05/15 07:58:34;;;;;;;46.30;36.20;;;;;;;;;;4940253;29;20828;-76
2023/05/15 08:01:00;;;;;;;57.80;36.93;;;;;;;;;;4940374;29;20421;-75
2023/05/15 08:03:26;;;;;;;42.63;32.77;;;;;;;;;;4940111;29;20417;-75
2023/05/15 08:05:52;;;;;;;50.90;31.77;;;;;;;;;;4939671;29;20417;-77
2023/05/15 08:08:18;;;;;;;44.03;35.30;;;;;;;;;;4941116;29;20410;-75
2023/05/15 08:10:44;;;;;;;46.43;32.73;;;;;;;;;;4941449;29;20475;-78
2023/05/15 08:13:10;;;;;;;42.90;33.03;;;;;;;;;;4943291;29;20413;-75
2023/05/15 08:15:36;;;;;;;43.40;30.80;;;;;;;;;;4946145;29;20409;-75
2023/05/15 08:18:07;;;;;;;40.33;31.23;;;;;;;;;;4943136;29;20465;-75
2023/05/15 08:20:33;;;;;;;43.80;32.53;;;;;;;;;;4944882;29;20425;-75
2023/05/15 08:22:59;;;;;;;39.87;29.23;;;;;;;;;;4942875;29;20413;-78
2023/05/15 08:25:25;;;;;;;33.90;23.90;;;;;;;;;;4943459;29;20395;-74
2023/05/15 08:27:51;;;;;;;36.73;30.83;;;;;;;;;;4943284;29;20429;-77
2023/05/15 08:30:17;;;;;;;45.83;32.47;;;;;;;;;;4943055;29;20421;-77
2023/05/15 08:32:47;;;;;;;34.40;26.40;;;;;;;;;;4941198;29;20459;-75
2023/05/15 08:35:13;;;;;;;38.47;29.67;;;;;;;;;;4943238;29;20430;-78
2023/05/15 08:37:40;;;;;;;40.10;29.20;;;;;;;;;;4942810;29;20915;-78
2023/05/15 08:40:06;;;;;;;40.53;31.10;;;;;;;;;;4942845;29;20421;-78
2023/05/15 08:42:48;;;;;;;41.20;28.83;;;;;;;;;;4941772;29;20468;-78
2023/05/15 08:45:14;;;;;;;37.00;28.50;;;;;;;;;;4942931;29;20410;-79
2023/05/15 08:47:41;;;;;;;39.97;28.40;;;;;;;;;;4942989;29;20425;-78
2023/05/15 08:50:12;;;;;;;36.43;27.03;;;;;;;;;;4942233;29;20444;-78
2023/05/15 08:52:40;;;;;;;35.17;24.20;;;;;;;;;;4942610;29;20403;-77
2023/05/15 08:55:07;;;;;;;37.50;27.10;;;;;;;;;;4941987;29;20464;-78
2023/05/15 08:57:33;;;;;;;36.57;27.20;;;;;;;;;;4942271;29;20384;-77
2023/05/15 08:59:59;;;;;;;36.67;30.20;;;;;;;;;;4942045;29;20421;-78
2023/05/15 09:02:26;;;;;;;32.73;27.00;;;;;;;;;;4942537;29;20433;-78
2023/05/15 09:04:52;;;;;;;35.47;26.53;;;;;;;;;;4941800;29;20494;-78
2023/05/15 09:07:18;;;;;;;34.40;29.27;;;;;;;;;;4942358;29;20413;-78
2023/05/15 09:09:44;;;;;;;34.80;29.23;;;;;;;;;;4942625;29;20380;-80
2023/05/15 09:12:13;;;;;;;32.47;26.43;;;;;;;;;;4941303;29;20417;-78
2023/05/15 09:14:39;;;;;;;32.80;27.13;;;;;;;;;;4942818;29;20420;-77
2023/05/15 09:17:05;;;;;;;32.47;25.63;;;;;;;;;;4941614;29;20413;-77
2023/05/15 09:19:34;;;;;;;31.50;24.60;;;;;;;;;;4941521;29;20857;-77
2023/05/15 09:22:23;;;;;;;29.00;23.70;;;;;;;;;;4941302;29;20392;-75
2023/05/15 09:24:51;;;;;;;27.00;22.50;;;;;;;;;;4941827;29;20436;-75
2023/05/15 09:27:17;;;;;;;28.70;22.77;;;;;;;;;;4941787;29;20479;-75
2023/05/15 09:29:44;;;;;;;25.50;22.00;;;;;;;;;;4941966;29;20383;-75
2023/05/15 09:32:10;;;;;;;28.77;23.90;;;;;;;;;;4941311;29;20440;-75
2023/05/15 09:34:38;;;;;;;27.50;23.33;;;;;;;;;;4941902;29;20409;-74
2023/05/15 09:37:05;;;;;;;25.13;22.23;;;;;;;;;;4940117;29;20421;-75
2023/05/15 09:39:31;;;;;;;23.27;19.90;;;;;;;;;;4941349;29;20468;-75
2023/05/15 09:42:08;;;;;;;25.60;20.50;;;;;;;;;;4940908;29;20384;-75
2023/05/15 09:44:34;;;;;;;27.37;23.27;;;;;;;;;;4940828;29;20409;-74
2023/05/15 09:47:00;;;;;;;25.77;23.07;;;;;;;;;;4940430;29;20418;-75
2023/05/15 09:49:30;;;;;;;26.90;23.33;;;;;;;;;;4940586;29;20403;-75
2023/05/15 09:52:00;;;;;;;26.77;23.80;;;;;;;;;;4939914;29;20461;-75
2023/05/15 09:54:26;;;;;;;26.57;23.83;;;;;;;;;;4940696;29;20447;-74
2023/05/15 09:56:53;;;;;;;26.73;23.47;;;;;;;;;;4940634;29;20461;-75
2023/05/15 09:59:23;;;;;;;32.33;25.77;;;;;;;;;;4940552;29;20465;-75
2023/05/15 10:01:50;;;;;;;29.60;26.10;;;;;;;;;;4940641;29;20438;-75
2023/05/15 10:04:16;;;;;;;28.73;25.63;;;;;;;;;;4939002;29;20914;-76
2023/05/15 10:06:45;;;;;;;33.93;24.27;;;;;;;;;;4939768;29;20446;-75
2023/05/15 10:09:13;;;;;;;27.43;23.57;;;;;;;;;;4939579;29;20396;-77
2023/05/15 10:11:40;;;;;;;27.00;22.40;;;;;;;;;;4940058;29;20414;-75
2023/05/15 10:14:07;;;;;;;24.60;21.83;;;;;;;;;;4940311;29;20414;-75
2023/05/15 10:16:36;;;;;;;26.07;22.77;;;;;;;;;;4940173;29;20457;-75
2023/05/15 10:19:03;;;;;;;27.10;20.90;;;;;;;;;;4939836;29;20568;-75
2023/05/15 10:21:31;;;;;;;24.77;22.10;;;;;;;;;;4939034;29;20421;-77
2023/05/15 10:23:59;;;;;;;26.80;23.90;;;;;;;;;;4939599;29;20413;-77
2023/05/15 10:26:45;;;;;;;23.00;20.60;;;;;;;;;;4939958;29;20414;-77
2023/05/15 10:29:12;;;;;;;23.70;21.27;;;;;;;;;;4938637;29;20515;-77
2023/05/15 10:31:41;;;;;;;22.07;19.20;;;;;;;;;;4939602;29;20508;-78
2023/05/15 10:34:08;;;;;;;20.97;18.73;;;;;;;;;;4939014;29;20429;-77
2023/05/15 10:36:36;;;;;;;25.20;20.63;;;;;;;;;;4939485;29;20500;-77
2023/05/15 10:39:03;;;;;;;22.23;19.80;;;;;;;;;;4939442;29;20435;-77
2023/05/15 10:41:29;;;;;;;22.60;18.90;;;;;;;;;;4939261;29;20441;-77
2023/05/15 10:43:59;;;;;;;25.23;20.43;;;;;;;;;;4939299;29;20981;-78
2023/05/15 10:46:26;;;;;;;22.37;18.63;;;;;;;;;;4939354;29;20779;-77
2023/05/15 10:48:52;;;;;;;22.40;19.63;;;;;;;;;;4938728;29;20385;-78
2023/05/15 10:51:23;;;;;;;25.40;21.30;;;;;;;;;;4939197;29;20874;-78
2023/05/15 10:53:50;;;;;;;27.80;25.10;;;;;;;;;;4939007;29;20405;-77
2023/05/15 10:56:17;;;;;;;23.73;21.17;;;;;;;;;;4939441;29;20409;-77
2023/05/15 10:58:49;;;;;;;28.63;24.37;;;;;;;;;;4939191;29;20457;-77
2023/05/15 11:01:26;;;;;;;24.83;21.83;;;;;;;;;;4939420;29;20422;-77
2023/05/15 11:04:03;;;;;;;23.63;21.27;;;;;;;;;;4937584;29;20387;-77
2023/05/15 11:06:31;;;;;;;24.20;21.70;;;;;;;;;;4939091;29;20417;-77
2023/05/15 11:09:17;;;;;;;27.53;22.67;;;;;;;;;;4938958;29;20432;-78
2023/05/15 11:11:53;;;;;;;29.20;24.40;;;;;;;;;;4939614;29;20757;-77
2023/05/15 11:14:19;;;;;;;24.67;21.90;;;;;;;;;;4939443;29;20469;-78
2023/05/15 11:16:56;;;;;;;26.73;20.60;;;;;;;;;;4938637;29;20921;-78
2023/05/15 11:19:23;;;;;;;29.93;23.43;;;;;;;;;;4938813;29;20636;-78
2023/05/15 11:21:59;;;;;;;27.20;23.27;;;;;;;;;;4938974;29;20442;-77
2023/05/15 11:24:29;;;;;;;28.27;21.90;;;;;;;;;;4939049;29;20394;-77
2023/05/15 11:27:01;;;;;;;27.13;22.13;;;;;;;;;;4938539;29;20425;-78
2023/05/15 11:29:28;;;;;;;25.93;19.57;;;;;;;;;;4938669;29;20840;-77
2023/05/15 11:31:54;;;;;;;23.27;20.27;;;;;;;;;;4938553;29;20752;-78
2023/05/15 11:34:30;;;;;;;26.27;22.00;;;;;;;;;;4939152;29;20410;-77
2023/05/15 11:36:57;;;;;;;26.90;22.37;;;;;;;;;;4938517;29;20420;-78
2023/05/15 11:39:24;;;;;;;23.80;20.67;;;;;;;;;;4938865;29;20809;-77
2023/05/15 11:41:50;;;;;;;26.57;21.90;;;;;;;;;;4938781;29;20787;-77
2023/05/15 11:44:23;;;;;;;24.47;20.10;;;;;;;;;;4938393;29;20413;-78
2023/05/15 11:46:50;;;;;;;25.80;20.20;;;;;;;;;;4942188;29;20438;-78
2023/05/15 11:49:19;;;;;;;24.83;20.97;;;;;;;;;;4942009;29;20419;-78
2023/05/15 11:51:47;;;;;;;24.53;20.70;;;;;;;;;;4942613;29;20468;-77
2023/05/15 11:54:13;;;;;;;21.73;18.13;;;;;;;;;;4942631;29;20705;-78
2023/05/15 11:56:43;;;;;;;27.33;20.43;;;;;;;;;;4942413;29;20414;-77
2023/05/15 11:59:11;;;;;;;24.70;19.50;;;;;;;;;;4942494;29;20471;-77
2023/05/15 12:01:46;;;;;;;21.40;18.80;;;;;;;;;;4942478;29;20388;-78
2023/05/15 12:04:15;;;;;;;22.20;18.03;;;;;;;;;;4942109;29;20817;-77
2023/05/15 12:06:43;;;;;;;21.90;16.83;;;;;;;;;;4942253;29;20584;-78
2023/05/15 12:09:20;;;;;;;28.40;20.57;;;;;;;;;;4941901;29;20520;-78
2023/05/15 12:11:53;;;;;;;21.93;17.07;;;;;;;;;;4941939;29;20405;-78
2023/05/15 12:14:27;;;;;;;19.63;17.07;;;;;;;;;;4942016;29;20917;-78
2023/05/15 12:16:53;;;;;;;22.13;17.67;;;;;;;;;;4941908;29;20469;-78
2023/05/15 12:19:19;;;;;;;20.00;16.60;;;;;;;;;;4941212;29;20583;-78
2023/05/15 12:21:48;;;;;;;18.37;15.33;;;;;;;;;;4941091;29;20406;-78
2023/05/15 12:24:14;;;;;;;15.47;13.87;;;;;;;;;;4941438;29;20468;-78
2023/05/15 12:26:40;;;;;;;19.23;14.07;;;;;;;;;;4940245;29;20413;-74
2023/05/15 12:29:06;;;;;;;19.30;15.27;;;;;;;;;;4940762;29;20395;-75
2023/05/15 12:31:33;;;;;;;21.93;16.40;;;;;;;;;;4940998;29;20410;-74
2023/05/15 12:33:59;;;;;;;17.97;16.07;;;;;;;;;;4940280;29;20406;-75
2023/05/15 12:36:30;;;;;;;18.10;15.97;;;;;;;;;;4940737;29;20436;-74
2023/05/15 12:38:57;;;;;;;17.73;15.93;;;;;;;;;;4940921;29;20468;-77
2023/05/15 12:41:29;;;;;;;17.17;15.47;;;;;;;;;;4941016;29;20917;-75
2023/05/15 12:43:55;;;;;;;18.07;14.97;;;;;;;;;;4939936;29;20425;-74
2023/05/15 12:46:30;;;;;;;23.93;19.47;;;;;;;;;;4941080;29;20413;-75
2023/05/15 12:49:00;;;;;;;24.33;16.93;;;;;;;;;;4940246;29;20833;-82
2023/05/15 12:51:28;;;;;;;19.07;15.07;;;;;;;;;;4940311;29;20475;-77
2023/05/15 12:53:56;;;;;;;23.10;18.33;;;;;;;;;;4940817;29;20441;-77
2023/05/15 12:56:23;;;;;;;18.47;16.40;;;;;;;;;;4940044;29;20409;-77
2023/05/15 12:58:50;;;;;;;19.93;15.10;;;;;;;;;;4940640;29;20528;-77
2023/05/15 13:01:16;;;;;;;19.40;16.47;;;;;;;;;;4940038;29;20414;-77
2023/05/15 13:03:43;;;;;;;20.00;16.27;;;;;;;;;;4940324;29;20414;-77
2023/05/15 13:06:12;;;;;;;17.90;15.97;;;;;;;;;;4938887;29;20478;-78
2023/05/15 13:08:41;;;;;;;20.40;16.87;;;;;;;;;;4940510;29;20413;-78
2023/05/15 13:11:11;;;;;;;15.73;13.70;;;;;;;;;;4940377;29;20405;-78
2023/05/15 13:13:41;;;;;;;16.60;14.50;;;;;;;;;;4940384;29;20405;-78
2023/05/15 13:16:17;;;;;;;18.27;15.93;;;;;;;;;;4939811;29;20430;-78
2023/05/15 13:18:43;;;;;;;23.43;16.37;;;;;;;;;;4940118;29;20439;-78
2023/05/15 13:21:09;;;;;;;22.77;17.17;;;;;;;;;;4945740;29;20418;-78
2023/05/15 13:23:35;;;;;;;21.90;16.10;;;;;;;;;;4948841;29;20410;-78
2023/05/15 13:26:01;;;;;;;12.53;10.60;;;;;;;;;;4939857;29;20420;-77
2023/05/15 13:28:27;;;;;;;14.03;9.80;;;;;;;;;;4956764;29;20418;-78
2023/05/15 13:30:53;;;;;;;19.53;15.93;;;;;;;;;;4958939;29;20409;-78
2023/05/15 13:33:19;;;;;;;20.57;16.07;;;;;;;;;;4958737;29;20933;-78
2023/05/15 13:35:45;;;;;;;19.13;15.07;;;;;;;;;;4958948;29;20426;-78
2023/05/15 13:38:11;;;;;;;17.77;15.90;;;;;;;;;;4958434;29;20464;-78
2023/05/15 13:40:37;;;;;;;22.77;17.27;;;;;;;;;;4958838;29;20420;-77
2023/05/15 13:43:05;;;;;;;16.23;13.37;;;;;;;;;;4958743;29;20483;-78
2023/05/15 13:45:31;;;;;;;23.00;16.03;;;;;;;;;;4958491;29;20497;-77
2023/05/15 13:47:57;;;;;;;17.50;15.30;;;;;;;;;;4958881;29;20408;-77
2023/05/15 13:50:23;;;;;;;16.30;14.17;;;;;;;;;;4958338;29;20984;-78
2023/05/15 13:52:49;;;;;;;13.40;12.10;;;;;;;;;;4959132;29;20480;-78
2023/05/15 13:55:15;;;;;;;18.00;16.13;;;;;;;;;;4958628;29;20412;-77
2023/05/15 13:57:42;;;;;;;18.07;15.93;;;;;;;;;;4958302;29;20408;-78
2023/05/15 14:00:11;;;;;;;21.83;18.10;;;;;;;;;;4957963;29;20771;-78
2023/05/15 14:02:37;;;;;;;15.97;14.10;;;;;;;;;;4958445;29;20945;-76
2023/05/15 14:05:04;;;;;;;21.83;19.53;;;;;;;;;;4958320;29;20416;-76
2023/05/15 14:07:30;;;;;;;22.40;17.37;;;;;;;;;;4941134;29;20942;-76
2023/05/15 14:09:57;;;;;;;29.70;19.70;;;;;;;;;;4941633;29;20444;-76
2023/05/15 14:12:23;;;;;;;24.80;20.97;;;;;;;;;;4957555;29;20801;-77
2023/05/15 14:14:49;;;;;;;24.77;22.17;;;;;;;;;;4957598;29;20408;-77
2023/05/15 14:17:15;;;;;;;25.67;19.97;;;;;;;;;;4954902;29;20432;-78